sensor_id;sensor_type;location;lat;lon;timestamp;temperature;humidity
11609;DHT22;5860;52.018;8.536;2023-12-20T00:02:16;7.10;99.90
11609;DHT22;5860;52.018;8.536;2023-12-20T00:04:43;7.10;99.90
11609;DHT22;5860;52.018;8.536;2023-12-20T00:07:10;7.10;99.90
11609;DHT22;5860;52.018;8.536;2023-12-20T00:09:37;7.10;99.90
11609;DHT22;5860;52.018;8.536;2023-12-20T00:12:04;7.00;99.90
11609;DHT22;5860;52.018;8.536;2023-12-20T00:14:31;6.90;99.90
11609;DHT22;5860;52.018;8.536;2023-12-20T00:16:58;6.90;99.90
11609;DHT22;5860;52.018;8.536;2023-12-20T00:19:25;7.00;99.90
11609;DHT22;5860;52.018;8.536;2023-12-20T00:21:52;7.00;99.90
11609;DHT22;5860;52.018;8.536;2023-12-20T00:24:19;6.90;99.90
11609;DHT22;5860;52.018;8.536;2023-12-20T00:26:47;6.90;99.90
11609;DHT22;5860;52.018;8.536;2023-12-20T00:29:13;6.90;99.90
11609;DHT22;5860;52.018;8.536;2023-12-20T00:31:40;6.90;99.90
11609;DHT22;5860;52.018;8.536;2023-12-20T00:34:07;6.90;99.90
11609;DHT22;5860;52.018;8.536;2023-12-20T00:36:34;7.00;99.90
11609;DHT22;5860;52.018;8.536;2023-12-20T00:39:01;7.00;99.90
11609;DHT22;5860;52.018;8.536;2023-12-20T00:41:29;7.00;99.90
11609;DHT22;5860;52.018;8.536;2023-12-20T00:43:55;7.00;99.90
11609;DHT22;5860;52.018;8.536;2023-12-20T00:46:22;7.00;99.90
11609;DHT22;5860;52.018;8.536;2023-12-20T00:48:49;7.00;99.90
11609;DHT22;5860;52.018;8.536;2023-12-20T00:51:16;7.00;99.90
11609;DHT22;5860;52.018;8.536;2023-12-20T00:53:43;6.90;99.90
11609;DHT22;5860;52.018;8.536;2023-12-20T00:56:10;6.90;99.90
11609;DHT22;5860;52.018;8.536;2023-12-20T00:58:37;6.90;99.90
11609;DHT22;5860;52.018;8.536;2023-12-20T01:01:04;6.90;99.90
11609;DHT22;5860;52.018;8.536;2023-12-20T01:03:31;6.90;99.90
11609;DHT22;5860;52.018;8.536;2023-12-20T01:05:58;6.90;99.90
11609;DHT22;5860;52.018;8.536;2023-12-20T01:08:25;6.90;99.90
11609;DHT22;5860;52.018;8.536;2023-12-20T01:10:52;6.90;99.90
11609;DHT22;5860;52.018;8.536;2023-12-20T01:13:19;6.90;99.90
11609;DHT22;5860;52.018;8.536;2023-12-20T01:15:46;6.90;99.90
11609;DHT22;5860;52.018;8.536;2023-12-20T01:18:14;6.90;99.90
11609;DHT22;5860;52.018;8.536;2023-12-20T01:20:41;6.90;99.90
11609;DHT22;5860;52.018;8.536;2023-12-20T01:23:08;6.90;99.90
11609;DHT22;5860;52.018;8.536;2023-12-20T01:25:34;6.90;99.90
11609;DHT22;5860;52.018;8.536;2023-12-20T01:28:01;6.90;99.90
11609;DHT22;5860;52.018;8.536;2023-12-20T01:30:29;6.80;99.90
11609;DHT22;5860;52.018;8.536;2023-12-20T01:32:56;6.70;99.90
11609;DHT22;5860;52.018;8.536;2023-12-20T01:35:23;6.70;99.90
11609;DHT22;5860;52.018;8.536;2023-12-20T01:37:50;6.70;99.90
11609;DHT22;5860;52.018;8.536;2023-12-20T01:40:17;6.70;99.90
11609;DHT22;5860;52.018;8.536;2023-12-20T01:42:44;6.70;99.90
11609;DHT22;5860;52.018;8.536;2023-12-20T01:45:11;6.70;99.90
11609;DHT22;5860;52.018;8.536;2023-12-20T01:47:38;6.70;99.90
11609;DHT22;5860;52.018;8.536;2023-12-20T01:50:05;6.70;99.90
11609;DHT22;5860;52.018;8.536;2023-12-20T01:52:35;6.60;99.90
11609;DHT22;5860;52.018;8.536;2023-12-20T01:55:02;6.60;99.90
11609;DHT22;5860;52.018;8.536;2023-12-20T01:57:31;6.60;99.90
11609;DHT22;5860;52.018;8.536;2023-12-20T01:59:58;6.70;99.90
11609;DHT22;5860;52.018;8.536;2023-12-20T02:02:26;6.70;99.90
11609;DHT22;5860;52.018;8.536;2023-12-20T02:04:54;6.70;99.90
11609;DHT22;5860;52.018;8.536;2023-12-20T02:07:22;6.60;99.90
11609;DHT22;5860;52.018;8.536;2023-12-20T02:09:49;6.50;99.90
11609;DHT22;5860;52.018;8.536;2023-12-20T02:12:16;6.40;99.90
11609;DHT22;5860;52.018;8.536;2023-12-20T02:14:43;6.40;99.90
11609;DHT22;5860;52.018;8.536;2023-12-20T02:17:10;6.40;99.90
11609;DHT22;5860;52.018;8.536;2023-12-20T02:19:37;6.50;99.90
11609;DHT22;5860;52.018;8.536;2023-12-20T02:22:11;6.50;99.90
11609;DHT22;5860;52.018;8.536;2023-12-20T02:24:38;6.40;99.90
11609;DHT22;5860;52.018;8.536;2023-12-20T02:27:06;6.40;99.90
11609;DHT22;5860;52.018;8.536;2023-12-20T02:29:34;6.40;99.90
11609;DHT22;5860;52.018;8.536;2023-12-20T02:32:02;6.40;99.90
11609;DHT22;5860;52.018;8.536;2023-12-20T02:34:29;6.40;99.90
11609;DHT22;5860;52.018;8.536;2023-12-20T02:36:56;6.40;99.90
11609;DHT22;5860;52.018;8.536;2023-12-20T02:39:23;6.50;99.90
11609;DHT22;5860;52.018;8.536;2023-12-20T02:41:50;6.40;99.90
11609;DHT22;5860;52.018;8.536;2023-12-20T02:44:17;6.40;99.90
11609;DHT22;5860;52.018;8.536;2023-12-20T02:46:44;6.40;99.90
11609;DHT22;5860;52.018;8.536;2023-12-20T02:49:11;6.40;99.90
11609;DHT22;5860;52.018;8.536;2023-12-20T02:51:38;6.40;99.90
11609;DHT22;5860;52.018;8.536;2023-12-20T02:54:05;6.40;99.90
11609;DHT22;5860;52.018;8.536;2023-12-20T02:56:33;6.50;99.90
11609;DHT22;5860;52.018;8.536;2023-12-20T03:05:23;6.40;99.90
11609;DHT22;5860;52.018;8.536;2023-12-20T03:07:50;6.30;99.90
11609;DHT22;5860;52.018;8.536;2023-12-20T03:10:18;6.30;99.90
11609;DHT22;5860;52.018;8.536;2023-12-20T03:12:52;6.30;99.90
11609;DHT22;5860;52.018;8.536;2023-12-20T03:15:19;6.40;99.90
11609;DHT22;5860;52.018;8.536;2023-12-20T03:17:46;6.30;99.90
11609;DHT22;5860;52.018;8.536;2023-12-20T03:20:13;6.40;99.90
11609;DHT22;5860;52.018;8.536;2023-12-20T03:22:40;6.30;99.90
11609;DHT22;5860;52.018;8.536;2023-12-20T03:25:07;6.30;99.90
11609;DHT22;5860;52.018;8.536;2023-12-20T03:27:37;6.30;99.90
11609;DHT22;5860;52.018;8.536;2023-12-20T03:30:06;6.30;99.90
11609;DHT22;5860;52.018;8.536;2023-12-20T03:32:33;6.30;99.90
11609;DHT22;5860;52.018;8.536;2023-12-20T03:35:00;6.20;99.90
11609;DHT22;5860;52.018;8.536;2023-12-20T03:39:55;6.30;99.90
11609;DHT22;5860;52.018;8.536;2023-12-20T03:42:22;6.30;99.90
11609;DHT22;5860;52.018;8.536;2023-12-20T03:44:49;6.20;99.90
11609;DHT22;5860;52.018;8.536;2023-12-20T03:47:16;6.20;99.90
11609;DHT22;5860;52.018;8.536;2023-12-20T03:49:42;6.20;99.90
11609;DHT22;5860;52.018;8.536;2023-12-20T03:52:10;6.20;99.90
11609;DHT22;5860;52.018;8.536;2023-12-20T03:54:36;6.20;99.90
11609;DHT22;5860;52.018;8.536;2023-12-20T03:57:04;6.20;99.90
11609;DHT22;5860;52.018;8.536;2023-12-20T03:59:35;6.20;99.90
11609;DHT22;5860;52.018;8.536;2023-12-20T04:02:03;6.20;99.90
11609;DHT22;5860;52.018;8.536;2023-12-20T04:04:30;6.20;99.90
11609;DHT22;5860;52.018;8.536;2023-12-20T04:06:57;6.20;99.90
11609;DHT22;5860;52.018;8.536;2023-12-20T04:09:24;6.20;99.90
11609;DHT22;5860;52.018;8.536;2023-12-20T04:11:52;6.20;99.90
11609;DHT22;5860;52.018;8.536;2023-12-20T04:14:19;6.20;99.90
11609;DHT22;5860;52.018;8.536;2023-12-20T04:16:46;6.20;99.90
11609;DHT22;5860;52.018;8.536;2023-12-20T04:19:13;6.20;99.90
11609;DHT22;5860;52.018;8.536;2023-12-20T04:21:40;6.20;99.90
11609;DHT22;5860;52.018;8.536;2023-12-20T04:24:07;6.20;99.90
11609;DHT22;5860;52.018;8.536;2023-12-20T04:26:35;6.20;99.90
11609;DHT22;5860;52.018;8.536;2023-12-20T04:29:02;6.20;99.90
11609;DHT22;5860;52.018;8.536;2023-12-20T04:31:28;6.10;99.90
11609;DHT22;5860;52.018;8.536;2023-12-20T04:33:55;6.20;99.90
11609;DHT22;5860;52.018;8.536;2023-12-20T04:36:22;6.20;99.90
11609;DHT22;5860;52.018;8.536;2023-12-20T04:41:17;6.20;99.90
11609;DHT22;5860;52.018;8.536;2023-12-20T04:43:46;6.10;99.90
11609;DHT22;5860;52.018;8.536;2023-12-20T04:46:13;6.20;99.90
11609;DHT22;5860;52.018;8.536;2023-12-20T04:48:40;6.10;99.90
11609;DHT22;5860;52.018;8.536;2023-12-20T04:51:07;6.20;99.90
11609;DHT22;5860;52.018;8.536;2023-12-20T04:53:34;6.10;99.90
11609;DHT22;5860;52.018;8.536;2023-12-20T04:56:01;6.20;99.90
11609;DHT22;5860;52.018;8.536;2023-12-20T04:58:28;6.20;99.90
11609;DHT22;5860;52.018;8.536;2023-12-20T05:00:54;6.20;99.90
11609;DHT22;5860;52.018;8.536;2023-12-20T05:03:22;6.20;99.90
11609;DHT22;5860;52.018;8.536;2023-12-20T05:05:48;6.10;99.90
11609;DHT22;5860;52.018;8.536;2023-12-20T05:08:15;6.20;99.90
11609;DHT22;5860;52.018;8.536;2023-12-20T05:10:42;6.20;99.90
11609;DHT22;5860;52.018;8.536;2023-12-20T05:13:09;6.20;99.90
11609;DHT22;5860;52.018;8.536;2023-12-20T05:15:36;6.20;99.90
11609;DHT22;5860;52.018;8.536;2023-12-20T05:18:03;6.20;99.90
11609;DHT22;5860;52.018;8.536;2023-12-20T05:20:31;6.20;99.90
11609;DHT22;5860;52.018;8.536;2023-12-20T05:22:57;6.20;99.90
11609;DHT22;5860;52.018;8.536;2023-12-20T05:25:25;6.20;99.90
11609;DHT22;5860;52.018;8.536;2023-12-20T05:27:52;6.20;99.90
11609;DHT22;5860;52.018;8.536;2023-12-20T05:30:19;6.20;99.90
11609;DHT22;5860;52.018;8.536;2023-12-20T05:32:46;6.20;99.90
11609;DHT22;5860;52.018;8.536;2023-12-20T05:35:13;6.20;99.90
11609;DHT22;5860;52.018;8.536;2023-12-20T05:37:39;6.10;99.90
11609;DHT22;5860;52.018;8.536;2023-12-20T05:40:07;6.20;99.90
11609;DHT22;5860;52.018;8.536;2023-12-20T05:42:37;6.20;99.90
11609;DHT22;5860;52.018;8.536;2023-12-20T05:45:07;6.20;99.90
11609;DHT22;5860;52.018;8.536;2023-12-20T05:47:34;6.20;99.90
11609;DHT22;5860;52.018;8.536;2023-12-20T05:50:01;6.20;99.90
11609;DHT22;5860;52.018;8.536;2023-12-20T05:52:28;6.20;99.90
11609;DHT22;5860;52.018;8.536;2023-12-20T05:54:55;6.20;99.90
11609;DHT22;5860;52.018;8.536;2023-12-20T05:57:31;6.20;99.90
11609;DHT22;5860;52.018;8.536;2023-12-20T05:59:58;6.20;99.90
11609;DHT22;5860;52.018;8.536;2023-12-20T06:02:24;6.20;99.90
11609;DHT22;5860;52.018;8.536;2023-12-20T06:07:19;6.20;99.90
11609;DHT22;5860;52.018;8.536;2023-12-20T06:09:46;6.30;99.90
11609;DHT22;5860;52.018;8.536;2023-12-20T06:12:13;6.20;99.90
11609;DHT22;5860;52.018;8.536;2023-12-20T06:14:40;6.30;99.90
11609;DHT22;5860;52.018;8.536;2023-12-20T06:17:06;6.20;99.90
11609;DHT22;5860;52.018;8.536;2023-12-20T06:19:33;6.20;99.90
11609;DHT22;5860;52.018;8.536;2023-12-20T06:22:00;6.30;99.90
11609;DHT22;5860;52.018;8.536;2023-12-20T06:24:27;6.20;99.90
11609;DHT22;5860;52.018;8.536;2023-12-20T06:26:55;6.30;99.90
11609;DHT22;5860;52.018;8.536;2023-12-20T06:29:22;6.20;99.90
11609;DHT22;5860;52.018;8.536;2023-12-20T06:31:49;6.20;99.90
11609;DHT22;5860;52.018;8.536;2023-12-20T06:34:16;6.20;99.90
11609;DHT22;5860;52.018;8.536;2023-12-20T06:36:43;6.20;99.90
11609;DHT22;5860;52.018;8.536;2023-12-20T06:39:09;6.20;99.90
11609;DHT22;5860;52.018;8.536;2023-12-20T06:41:39;6.20;99.90
11609;DHT22;5860;52.018;8.536;2023-12-20T06:44:06;6.20;99.90
11609;DHT22;5860;52.018;8.536;2023-12-20T06:46:33;6.30;99.90
11609;DHT22;5860;52.018;8.536;2023-12-20T06:49:00;6.20;99.90
11609;DHT22;5860;52.018;8.536;2023-12-20T06:51:28;6.30;99.90
11609;DHT22;5860;52.018;8.536;2023-12-20T06:53:54;6.20;99.90
11609;DHT22;5860;52.018;8.536;2023-12-20T06:56:24;6.20;99.90
11609;DHT22;5860;52.018;8.536;2023-12-20T06:58:51;6.20;99.90
11609;DHT22;5860;52.018;8.536;2023-12-20T07:01:18;6.20;99.90
11609;DHT22;5860;52.018;8.536;2023-12-20T07:03:45;6.20;99.90
11609;DHT22;5860;52.018;8.536;2023-12-20T07:06:12;6.20;99.90
11609;DHT22;5860;52.018;8.536;2023-12-20T07:08:40;6.20;99.90
11609;DHT22;5860;52.018;8.536;2023-12-20T07:11:07;6.30;99.90
11609;DHT22;5860;52.018;8.536;2023-12-20T07:13:34;6.20;99.90
11609;DHT22;5860;52.018;8.536;2023-12-20T07:16:01;6.20;99.90
11609;DHT22;5860;52.018;8.536;2023-12-20T07:18:28;6.20;99.90
11609;DHT22;5860;52.018;8.536;2023-12-20T07:20:55;6.20;99.90
11609;DHT22;5860;52.018;8.536;2023-12-20T07:23:22;6.20;99.90
11609;DHT22;5860;52.018;8.536;2023-12-20T07:25:49;6.20;99.90
11609;DHT22;5860;52.018;8.536;2023-12-20T07:28:16;6.20;99.90
11609;DHT22;5860;52.018;8.536;2023-12-20T07:30:43;6.30;99.90
11609;DHT22;5860;52.018;8.536;2023-12-20T07:35:39;6.30;99.90
11609;DHT22;5860;52.018;8.536;2023-12-20T07:38:06;6.30;99.90
11609;DHT22;5860;52.018;8.536;2023-12-20T07:40:33;6.30;99.90
11609;DHT22;5860;52.018;8.536;2023-12-20T07:43:00;6.40;99.90
11609;DHT22;5860;52.018;8.536;2023-12-20T07:45:27;6.30;99.90
11609;DHT22;5860;52.018;8.536;2023-12-20T07:47:54;6.30;99.90
11609;DHT22;5860;52.018;8.536;2023-12-20T07:50:21;6.30;99.90
11609;DHT22;5860;52.018;8.536;2023-12-20T07:52:48;6.30;99.90
11609;DHT22;5860;52.018;8.536;2023-12-20T07:55:15;6.20;99.90
11609;DHT22;5860;52.018;8.536;2023-12-20T07:57:42;6.40;99.90
11609;DHT22;5860;52.018;8.536;2023-12-20T08:00:10;6.30;99.90
11609;DHT22;5860;52.018;8.536;2023-12-20T08:02:37;6.30;99.90
11609;DHT22;5860;52.018;8.536;2023-12-20T08:05:04;6.30;99.90
11609;DHT22;5860;52.018;8.536;2023-12-20T08:07:31;6.40;99.90
11609;DHT22;5860;52.018;8.536;2023-12-20T08:09:58;6.40;99.90
11609;DHT22;5860;52.018;8.536;2023-12-20T08:12:25;6.40;99.90
11609;DHT22;5860;52.018;8.536;2023-12-20T08:14:54;6.40;99.90
11609;DHT22;5860;52.018;8.536;2023-12-20T08:17:21;6.40;99.90
11609;DHT22;5860;52.018;8.536;2023-12-20T08:19:49;6.50;99.90
11609;DHT22;5860;52.018;8.536;2023-12-20T08:22:17;6.50;99.90
11609;DHT22;5860;52.018;8.536;2023-12-20T08:24:44;6.50;99.90
11609;DHT22;5860;52.018;8.536;2023-12-20T08:27:10;6.50;99.90
11609;DHT22;5860;52.018;8.536;2023-12-20T08:29:37;6.50;99.90
11609;DHT22;5860;52.018;8.536;2023-12-20T08:32:05;6.50;99.90
11609;DHT22;5860;52.018;8.536;2023-12-20T08:34:32;6.50;99.90
11609;DHT22;5860;52.018;8.536;2023-12-20T08:36:58;6.50;99.90
11609;DHT22;5860;52.018;8.536;2023-12-20T08:39:25;6.50;99.90
11609;DHT22;5860;52.018;8.536;2023-12-20T08:41:52;6.50;99.90
11609;DHT22;5860;52.018;8.536;2023-12-20T08:44:19;6.50;99.90
11609;DHT22;5860;52.018;8.536;2023-12-20T08:46:46;6.50;99.90
11609;DHT22;5860;52.018;8.536;2023-12-20T08:49:13;6.50;99.90
11609;DHT22;5860;52.018;8.536;2023-12-20T08:51:41;6.50;99.90
11609;DHT22;5860;52.018;8.536;2023-12-20T08:54:09;6.50;99.90
11609;DHT22;5860;52.018;8.536;2023-12-20T08:56:36;6.50;99.90
11609;DHT22;5860;52.018;8.536;2023-12-20T08:59:03;6.40;99.90
11609;DHT22;5860;52.018;8.536;2023-12-20T09:01:30;6.50;99.90
11609;DHT22;5860;52.018;8.536;2023-12-20T09:03:57;6.50;99.90
11609;DHT22;5860;52.018;8.536;2023-12-20T09:06:24;6.50;99.90
11609;DHT22;5860;52.018;8.536;2023-12-20T09:08:51;6.50;99.90
11609;DHT22;5860;52.018;8.536;2023-12-20T09:11:18;6.50;99.90
11609;DHT22;5860;52.018;8.536;2023-12-20T09:13:46;6.50;99.90
11609;DHT22;5860;52.018;8.536;2023-12-20T09:16:13;6.50;99.90
11609;DHT22;5860;52.018;8.536;2023-12-20T09:18:42;6.50;99.90
11609;DHT22;5860;52.018;8.536;2023-12-20T09:21:09;6.60;99.90
11609;DHT22;5860;52.018;8.536;2023-12-20T09:23:36;6.50;99.90
11609;DHT22;5860;52.018;8.536;2023-12-20T09:26:03;6.60;99.90
11609;DHT22;5860;52.018;8.536;2023-12-20T09:28:30;6.50;99.90
11609;DHT22;5860;52.018;8.536;2023-12-20T09:31:03;6.60;99.90
11609;DHT22;5860;52.018;8.536;2023-12-20T09:33:30;6.70;99.90
11609;DHT22;5860;52.018;8.536;2023-12-20T09:35:57;6.60;99.90
11609;DHT22;5860;52.018;8.536;2023-12-20T09:38:25;6.60;99.90
11609;DHT22;5860;52.018;8.536;2023-12-20T09:40:52;6.60;99.90
11609;DHT22;5860;52.018;8.536;2023-12-20T09:43:20;6.70;99.90
11609;DHT22;5860;52.018;8.536;2023-12-20T09:45:53;6.70;99.90
11609;DHT22;5860;52.018;8.536;2023-12-20T09:48:20;6.60;99.90
11609;DHT22;5860;52.018;8.536;2023-12-20T09:50:47;6.60;99.90
11609;DHT22;5860;52.018;8.536;2023-12-20T09:53:20;6.70;99.90
11609;DHT22;5860;52.018;8.536;2023-12-20T09:55:47;6.60;99.90
11609;DHT22;5860;52.018;8.536;2023-12-20T09:58:16;6.60;99.90
11609;DHT22;5860;52.018;8.536;2023-12-20T10:00:43;6.60;99.90
11609;DHT22;5860;52.018;8.536;2023-12-20T10:03:11;6.60;99.90
11609;DHT22;5860;52.018;8.536;2023-12-20T10:05:43;6.60;99.90
11609;DHT22;5860;52.018;8.536;2023-12-20T10:08:11;6.60;99.90
11609;DHT22;5860;52.018;8.536;2023-12-20T10:10:38;6.60;99.90
11609;DHT22;5860;52.018;8.536;2023-12-20T10:13:15;6.70;99.90
11609;DHT22;5860;52.018;8.536;2023-12-20T10:15:42;6.70;99.90
11609;DHT22;5860;52.018;8.536;2023-12-20T10:18:11;6.70;99.90
11609;DHT22;5860;52.018;8.536;2023-12-20T10:20:40;6.80;99.90
11609;DHT22;5860;52.018;8.536;2023-12-20T10:23:08;6.90;99.90
11609;DHT22;5860;52.018;8.536;2023-12-20T10:25:36;6.90;99.90
11609;DHT22;5860;52.018;8.536;2023-12-20T10:30:38;7.00;99.90
11609;DHT22;5860;52.018;8.536;2023-12-20T10:33:06;7.00;99.90
11609;DHT22;5860;52.018;8.536;2023-12-20T10:35:36;6.90;99.90
11609;DHT22;5860;52.018;8.536;2023-12-20T10:38:04;6.90;99.90
11609;DHT22;5860;52.018;8.536;2023-12-20T10:40:36;6.90;99.90
11609;DHT22;5860;52.018;8.536;2023-12-20T10:43:05;6.80;99.90
11609;DHT22;5860;52.018;8.536;2023-12-20T10:45:33;6.80;99.90
11609;DHT22;5860;52.018;8.536;2023-12-20T10:48:01;6.80;99.90
11609;DHT22;5860;52.018;8.536;2023-12-20T10:50:30;6.90;99.90
11609;DHT22;5860;52.018;8.536;2023-12-20T10:52:58;6.90;99.90
11609;DHT22;5860;52.018;8.536;2023-12-20T10:55:26;6.90;99.90
11609;DHT22;5860;52.018;8.536;2023-12-20T10:58:07;6.90;99.90
11609;DHT22;5860;52.018;8.536;2023-12-20T11:00:41;6.80;99.90
11609;DHT22;5860;52.018;8.536;2023-12-20T11:03:11;6.80;99.90
11609;DHT22;5860;52.018;8.536;2023-12-20T11:05:58;6.80;99.90
11609;DHT22;5860;52.018;8.536;2023-12-20T11:08:33;6.80;99.90
11609;DHT22;5860;52.018;8.536;2023-12-20T11:11:23;6.80;99.90
11609;DHT22;5860;52.018;8.536;2023-12-20T11:16:26;6.70;99.90
11609;DHT22;5860;52.018;8.536;2023-12-20T11:19:07;6.80;99.90
11609;DHT22;5860;52.018;8.536;2023-12-20T11:21:34;6.80;99.90
11609;DHT22;5860;52.018;8.536;2023-12-20T11:24:02;6.80;99.90
11609;DHT22;5860;52.018;8.536;2023-12-20T11:26:30;6.80;99.90
11609;DHT22;5860;52.018;8.536;2023-12-20T11:29:31;6.80;99.90
11609;DHT22;5860;52.018;8.536;2023-12-20T11:32:00;6.90;99.90
11609;DHT22;5860;52.018;8.536;2023-12-20T11:34:31;6.90;99.90
11609;DHT22;5860;52.018;8.536;2023-12-20T11:37:02;7.10;99.90
11609;DHT22;5860;52.018;8.536;2023-12-20T11:39:30;7.10;99.90
11609;DHT22;5860;52.018;8.536;2023-12-20T11:42:04;7.10;99.90
11609;DHT22;5860;52.018;8.536;2023-12-20T11:44:31;7.00;99.90
11609;DHT22;5860;52.018;8.536;2023-12-20T11:46:59;7.10;99.90
11609;DHT22;5860;52.018;8.536;2023-12-20T11:49:26;7.10;99.90
11609;DHT22;5860;52.018;8.536;2023-12-20T11:51:53;7.10;99.90
11609;DHT22;5860;52.018;8.536;2023-12-20T11:54:20;7.20;99.90
11609;DHT22;5860;52.018;8.536;2023-12-20T11:56:47;7.10;99.90
11609;DHT22;5860;52.018;8.536;2023-12-20T11:59:15;7.10;99.90
11609;DHT22;5860;52.018;8.536;2023-12-20T12:01:50;7.10;99.90
11609;DHT22;5860;52.018;8.536;2023-12-20T12:04:18;7.10;99.90
11609;DHT22;5860;52.018;8.536;2023-12-20T12:06:46;7.20;99.90
11609;DHT22;5860;52.018;8.536;2023-12-20T12:09:13;7.10;99.90
11609;DHT22;5860;52.018;8.536;2023-12-20T12:11:40;7.20;99.90
11609;DHT22;5860;52.018;8.536;2023-12-20T12:14:07;7.20;99.90
11609;DHT22;5860;52.018;8.536;2023-12-20T12:16:34;7.10;99.90
11609;DHT22;5860;52.018;8.536;2023-12-20T12:19:01;7.20;99.90
11609;DHT22;5860;52.018;8.536;2023-12-20T12:21:28;7.20;99.90
11609;DHT22;5860;52.018;8.536;2023-12-20T12:24:07;7.20;99.90
11609;DHT22;5860;52.018;8.536;2023-12-20T12:26:34;7.20;99.90
11609;DHT22;5860;52.018;8.536;2023-12-20T12:31:29;7.30;99.90
11609;DHT22;5860;52.018;8.536;2023-12-20T12:33:57;7.30;99.90
11609;DHT22;5860;52.018;8.536;2023-12-20T12:36:24;7.30;99.90
11609;DHT22;5860;52.018;8.536;2023-12-20T12:38:51;7.30;99.90
11609;DHT22;5860;52.018;8.536;2023-12-20T12:43:45;7.40;99.90
11609;DHT22;5860;52.018;8.536;2023-12-20T12:46:12;7.40;99.90
11609;DHT22;5860;52.018;8.536;2023-12-20T12:48:39;7.40;99.90
11609;DHT22;5860;52.018;8.536;2023-12-20T12:51:09;7.30;99.90
11609;DHT22;5860;52.018;8.536;2023-12-20T12:53:40;7.30;99.90
11609;DHT22;5860;52.018;8.536;2023-12-20T12:56:07;7.30;99.90
11609;DHT22;5860;52.018;8.536;2023-12-20T12:58:34;7.20;99.90
11609;DHT22;5860;52.018;8.536;2023-12-20T13:01:02;7.20;99.90
11609;DHT22;5860;52.018;8.536;2023-12-20T13:03:30;7.20;99.90
11609;DHT22;5860;52.018;8.536;2023-12-20T13:05:57;7.10;99.90
11609;DHT22;5860;52.018;8.536;2023-12-20T13:08:24;7.10;99.90
11609;DHT22;5860;52.018;8.536;2023-12-20T13:10:51;7.10;99.90
11609;DHT22;5860;52.018;8.536;2023-12-20T13:13:18;7.10;99.90
11609;DHT22;5860;52.018;8.536;2023-12-20T13:15:46;7.10;99.90
11609;DHT22;5860;52.018;8.536;2023-12-20T13:18:18;7.00;99.90
11609;DHT22;5860;52.018;8.536;2023-12-20T13:20:46;7.00;99.90
11609;DHT22;5860;52.018;8.536;2023-12-20T13:23:13;7.00;99.90
11609;DHT22;5860;52.018;8.536;2023-12-20T13:25:41;6.80;99.90
11609;DHT22;5860;52.018;8.536;2023-12-20T13:28:08;6.70;99.90
11609;DHT22;5860;52.018;8.536;2023-12-20T13:30:36;6.60;99.90
11609;DHT22;5860;52.018;8.536;2023-12-20T13:33:03;6.70;99.90
11609;DHT22;5860;52.018;8.536;2023-12-20T13:35:31;6.60;99.90
11609;DHT22;5860;52.018;8.536;2023-12-20T13:37:59;6.80;99.90
11609;DHT22;5860;52.018;8.536;2023-12-20T13:40:26;6.60;99.90
11609;DHT22;5860;52.018;8.536;2023-12-20T13:42:53;6.70;99.90
11609;DHT22;5860;52.018;8.536;2023-12-20T13:45:21;6.50;99.90
11609;DHT22;5860;52.018;8.536;2023-12-20T13:47:49;6.50;99.90
11609;DHT22;5860;52.018;8.536;2023-12-20T13:50:16;6.50;99.90
11609;DHT22;5860;52.018;8.536;2023-12-20T13:52:43;6.40;99.90
11609;DHT22;5860;52.018;8.536;2023-12-20T13:55:10;6.40;99.90
11609;DHT22;5860;52.018;8.536;2023-12-20T13:57:38;6.30;99.90
11609;DHT22;5860;52.018;8.536;2023-12-20T14:00:09;6.30;99.90
11609;DHT22;5860;52.018;8.536;2023-12-20T14:02:41;6.30;99.90
11609;DHT22;5860;52.018;8.536;2023-12-20T14:05:09;6.30;99.90
11609;DHT22;5860;52.018;8.536;2023-12-20T14:07:41;6.30;99.90
11609;DHT22;5860;52.018;8.536;2023-12-20T14:10:12;6.30;99.90
11609;DHT22;5860;52.018;8.536;2023-12-20T14:12:43;6.30;99.90
11609;DHT22;5860;52.018;8.536;2023-12-20T14:15:11;6.30;99.90
11609;DHT22;5860;52.018;8.536;2023-12-20T14:17:40;6.30;99.90
11609;DHT22;5860;52.018;8.536;2023-12-20T14:20:09;6.30;99.90
11609;DHT22;5860;52.018;8.536;2023-12-20T14:22:36;6.20;99.90
11609;DHT22;5860;52.018;8.536;2023-12-20T14:25:05;6.30;99.90
11609;DHT22;5860;52.018;8.536;2023-12-20T14:27:33;6.20;99.90
11609;DHT22;5860;52.018;8.536;2023-12-20T14:30:00;6.20;99.90
11609;DHT22;5860;52.018;8.536;2023-12-20T14:32:27;6.20;99.90
11609;DHT22;5860;52.018;8.536;2023-12-20T14:34:55;6.20;99.90
11609;DHT22;5860;52.018;8.536;2023-12-20T14:37:22;6.20;99.90
11609;DHT22;5860;52.018;8.536;2023-12-20T14:39:49;6.20;99.90
11609;DHT22;5860;52.018;8.536;2023-12-20T14:42:16;6.20;99.90
11609;DHT22;5860;52.018;8.536;2023-12-20T14:44:43;6.20;99.90
11609;DHT22;5860;52.018;8.536;2023-12-20T14:47:10;6.20;99.90
11609;DHT22;5860;52.018;8.536;2023-12-20T14:49:37;6.20;99.90
11609;DHT22;5860;52.018;8.536;2023-12-20T14:52:05;6.10;99.90
11609;DHT22;5860;52.018;8.536;2023-12-20T14:54:32;6.10;99.90
11609;DHT22;5860;52.018;8.536;2023-12-20T14:56:59;6.20;99.90
11609;DHT22;5860;52.018;8.536;2023-12-20T14:59:31;6.20;99.90
11609;DHT22;5860;52.018;8.536;2023-12-20T15:01:58;6.10;99.90
11609;DHT22;5860;52.018;8.536;2023-12-20T15:04:26;6.20;99.90
11609;DHT22;5860;52.018;8.536;2023-12-20T15:06:55;6.20;99.90
11609;DHT22;5860;52.018;8.536;2023-12-20T15:09:22;6.20;99.90
11609;DHT22;5860;52.018;8.536;2023-12-20T15:11:50;6.20;99.90
11609;DHT22;5860;52.018;8.536;2023-12-20T15:14:17;6.10;99.90
11609;DHT22;5860;52.018;8.536;2023-12-20T15:16:47;6.20;99.90
11609;DHT22;5860;52.018;8.536;2023-12-20T15:19:14;6.20;99.90
11609;DHT22;5860;52.018;8.536;2023-12-20T15:21:41;6.10;99.90
11609;DHT22;5860;52.018;8.536;2023-12-20T15:24:13;6.20;99.90
11609;DHT22;5860;52.018;8.536;2023-12-20T15:26:46;6.20;99.90
11609;DHT22;5860;52.018;8.536;2023-12-20T15:29:14;6.20;99.90
11609;DHT22;5860;52.018;8.536;2023-12-20T15:31:47;6.20;99.90
11609;DHT22;5860;52.018;8.536;2023-12-20T15:34:15;6.20;99.90
11609;DHT22;5860;52.018;8.536;2023-12-20T15:36:43;6.20;99.90
11609;DHT22;5860;52.018;8.536;2023-12-20T15:39:10;6.10;99.90
11609;DHT22;5860;52.018;8.536;2023-12-20T15:41:41;6.10;99.90
11609;DHT22;5860;52.018;8.536;2023-12-20T15:44:08;6.10;99.90
11609;DHT22;5860;52.018;8.536;2023-12-20T15:46:35;6.10;99.90
11609;DHT22;5860;52.018;8.536;2023-12-20T15:49:02;6.10;99.90
11609;DHT22;5860;52.018;8.536;2023-12-20T15:51:29;6.10;99.90
11609;DHT22;5860;52.018;8.536;2023-12-20T15:53:56;6.10;99.90
11609;DHT22;5860;52.018;8.536;2023-12-20T15:56:24;6.10;99.90
11609;DHT22;5860;52.018;8.536;2023-12-20T15:58:51;6.10;99.90
11609;DHT22;5860;52.018;8.536;2023-12-20T16:01:18;6.10;99.90
11609;DHT22;5860;52.018;8.536;2023-12-20T16:03:45;6.10;99.90
11609;DHT22;5860;52.018;8.536;2023-12-20T16:06:22;6.10;99.90
11609;DHT22;5860;52.018;8.536;2023-12-20T16:08:49;6.10;99.90
11609;DHT22;5860;52.018;8.536;2023-12-20T16:11:16;6.00;99.90
11609;DHT22;5860;52.018;8.536;2023-12-20T16:13:43;6.00;99.90
11609;DHT22;5860;52.018;8.536;2023-12-20T16:16:10;6.00;99.90
11609;DHT22;5860;52.018;8.536;2023-12-20T16:18:37;6.00;99.90
11609;DHT22;5860;52.018;8.536;2023-12-20T16:21:04;6.10;99.90
11609;DHT22;5860;52.018;8.536;2023-12-20T16:23:31;6.10;99.90
11609;DHT22;5860;52.018;8.536;2023-12-20T16:25:58;6.10;99.90
11609;DHT22;5860;52.018;8.536;2023-12-20T16:28:25;6.10;99.90
11609;DHT22;5860;52.018;8.536;2023-12-20T16:30:52;6.10;99.90
11609;DHT22;5860;52.018;8.536;2023-12-20T16:33:22;6.10;99.90